createdAt,value
2018-11-23T00:00:35.196Z,42.50
2018-11-23T00:03:03.690Z,43.63
2018-11-23T00:05:32.211Z,44.33
2018-11-23T00:08:01.733Z,46.58
2018-11-23T00:10:31.583Z,44.30
2018-11-23T00:13:00.086Z,45.17
2018-11-23T00:15:28.662Z,43.85
2018-11-23T00:17:57.140Z,43.40
2018-11-23T00:20:26.921Z,42.20
2018-11-23T00:22:55.383Z,43.48
2018-11-23T00:25:24.787Z,41.90
2018-11-23T00:27:53.966Z,42.38
2018-11-23T00:30:23.679Z,43.70
2018-11-23T00:32:52.616Z,46.60
2018-11-23T00:35:22.368Z,43.70
2018-11-23T00:37:51.500Z,44.30
2018-11-23T00:40:21.229Z,46.55
2018-11-23T00:42:50.023Z,46.15
2018-11-23T00:45:18.517Z,43.55
2018-11-23T00:47:47.623Z,42.95
2018-11-23T00:50:17.094Z,44.98
2018-11-23T00:52:46.008Z,42.85
2018-11-23T00:55:15.613Z,46.80
2018-11-23T00:57:44.274Z,44.75
2018-11-23T01:00:17.059Z,46.77
2018-11-23T01:02:45.686Z,42.50
2018-11-23T01:05:15.629Z,45.50
2018-11-23T01:07:44.682Z,45.45
2018-11-23T01:10:14.314Z,40.20
2018-11-23T01:12:43.710Z,44.65
2018-11-23T01:15:12.340Z,45.90
2018-11-23T01:17:40.811Z,42.08
2018-11-23T01:20:11.283Z,43.33
2018-11-23T01:22:40.284Z,45.20
2018-11-23T01:25:10.025Z,44.75
2018-11-23T01:27:38.951Z,43.83
2018-11-23T01:30:10.702Z,44.88
2018-11-23T01:32:39.214Z,42.15
2018-11-23T01:35:07.750Z,44.18
2018-11-23T01:37:36.226Z,43.78
2018-11-23T01:40:04.887Z,43.02
2018-11-23T01:42:33.410Z,46.13
2018-11-23T01:45:01.908Z,46.18
2018-11-23T01:47:30.377Z,46.48
2018-11-23T01:49:58.877Z,45.00
2018-11-23T01:52:27.327Z,45.30
2018-11-23T01:54:55.798Z,43.38
2018-11-23T01:57:24.299Z,45.00
2018-11-23T01:59:53.182Z,45.35
2018-11-23T02:02:21.573Z,42.50
2018-11-23T02:04:50.056Z,45.35
2018-11-23T02:07:18.541Z,45.63
2018-11-23T02:09:46.978Z,46.05
2018-11-23T02:12:15.459Z,46.42
2018-11-23T02:14:43.913Z,43.73
2018-11-23T02:17:12.368Z,46.60
2018-11-23T02:19:40.859Z,44.42
2018-11-23T02:22:09.345Z,43.87
2018-11-23T02:24:37.829Z,46.45
2018-11-23T02:27:06.314Z,43.68
2018-11-23T02:29:34.801Z,45.63
2018-11-23T02:32:03.276Z,44.33
2018-11-23T02:34:31.800Z,46.13
2018-11-23T02:37:00.249Z,44.25
2018-11-23T02:39:28.730Z,45.08
2018-11-23T02:41:57.211Z,44.25
2018-11-23T02:44:25.670Z,41.40
2018-11-23T02:46:54.139Z,41.65
2018-11-23T02:49:22.618Z,46.13
2018-11-23T02:51:51.099Z,44.85
2018-11-23T02:54:19.622Z,44.83
2018-11-23T02:56:48.147Z,41.68
2018-11-23T02:59:16.609Z,44.00
2018-11-23T03:01:45.065Z,45.15
2018-11-23T03:04:13.559Z,44.45
2018-11-23T03:06:42.005Z,45.90
2018-11-23T03:09:10.682Z,46.55
2018-11-23T03:11:40.341Z,42.23
2018-11-23T03:14:09.187Z,42.65
2018-11-23T03:16:38.014Z,42.67
2018-11-23T03:19:06.826Z,42.83
2018-11-23T03:21:35.305Z,45.73
2018-11-23T03:24:03.766Z,42.25
2018-11-23T03:26:32.289Z,42.55
2018-11-23T03:29:00.749Z,45.43
2018-11-23T03:31:29.180Z,41.48
2018-11-23T03:33:57.662Z,42.73
2018-11-23T03:36:26.124Z,42.33
2018-11-23T03:38:54.579Z,43.25
2018-11-23T03:41:23.069Z,42.80
2018-11-23T03:43:51.567Z,43.48
2018-11-23T03:46:20.025Z,43.15
2018-11-23T03:48:48.556Z,46.20
2018-11-23T03:51:16.945Z,45.73
2018-11-23T03:53:45.395Z,42.55
2018-11-23T03:56:13.888Z,42.75
2018-11-23T03:58:42.371Z,45.28
2018-11-23T04:01:10.807Z,41.88
2018-11-23T04:03:39.315Z,42.88
2018-11-23T04:06:07.802Z,45.48
2018-11-23T04:08:36.245Z,42.00
2018-11-23T04:11:04.804Z,43.17
2018-11-23T04:13:33.277Z,43.92
2018-11-23T04:16:01.777Z,42.73
2018-11-23T04:18:30.278Z,44.60
2018-11-23T04:21:02.708Z,42.33
2018-11-23T04:23:32.499Z,39.42
2018-11-23T04:26:01.078Z,45.03
2018-11-23T04:28:29.594Z,41.73
2018-11-23T04:30:58.083Z,43.13
2018-11-23T04:33:27.011Z,43.68
2018-11-23T04:35:55.974Z,41.85
2018-11-23T04:38:24.445Z,41.15
2018-11-23T04:40:52.954Z,42.83
2018-11-23T04:43:21.442Z,42.43
2018-11-23T04:45:49.926Z,44.70
2018-11-23T04:48:18.419Z,41.15
2018-11-23T04:50:46.897Z,40.35
2018-11-23T04:53:15.346Z,42.40
2018-11-23T04:55:43.856Z,42.65
2018-11-23T04:58:12.357Z,40.60
2018-11-23T05:00:40.840Z,44.33
2018-11-23T05:03:09.327Z,42.98
2018-11-23T05:05:37.813Z,40.83
2018-11-23T05:08:06.297Z,41.48
2018-11-23T05:10:34.741Z,39.05
2018-11-23T05:13:03.190Z,44.98
2018-11-23T05:15:31.639Z,38.42
2018-11-23T05:18:00.139Z,40.98
2018-11-23T05:20:28.566Z,40.10
2018-11-23T05:22:57.001Z,40.88
2018-11-23T05:25:25.469Z,43.40
2018-11-23T05:27:53.925Z,39.15
2018-11-23T05:30:22.474Z,40.35
2018-11-23T05:32:50.966Z,42.20
2018-11-23T05:35:19.641Z,38.05
2018-11-23T05:37:48.121Z,41.65
2018-11-23T05:40:17.852Z,39.03
2018-11-23T05:42:46.326Z,40.00
2018-11-23T05:45:19.053Z,41.53
2018-11-23T05:47:50.800Z,41.83
2018-11-23T05:50:23.293Z,40.63
2018-11-23T05:52:52.073Z,40.70
2018-11-23T05:55:27.704Z,37.78
2018-11-23T05:57:56.123Z,38.75
2018-11-23T06:00:26.005Z,38.70
2018-11-23T06:02:54.576Z,38.15
2018-11-23T06:05:23.085Z,41.33
2018-11-23T06:07:55.912Z,38.42
2018-11-23T06:10:25.244Z,37.53
2018-11-23T06:12:53.725Z,40.08
2018-11-23T06:15:26.066Z,40.23
2018-11-23T06:17:54.550Z,35.83
2018-11-23T06:20:24.401Z,40.45
2018-11-23T06:22:54.740Z,38.60
2018-11-23T06:25:41.982Z,40.98
2018-11-23T06:28:14.373Z,38.15
2018-11-23T06:31:36.490Z,38.63
2018-11-23T06:34:01.823Z,36.20
2018-11-23T06:36:31.036Z,38.95
2018-11-23T06:38:59.523Z,36.77
2018-11-23T06:41:30.916Z,37.83
2018-11-23T06:50:05.277Z,35.92
2018-11-23T06:52:36.308Z,39.10
2018-11-23T06:55:05.528Z,37.10
2018-11-23T06:57:33.986Z,38.80
2018-11-23T07:00:02.434Z,37.93
2018-11-23T07:02:30.860Z,35.92
2018-11-23T07:04:59.348Z,36.03
2018-11-23T07:07:27.998Z,35.60
2018-11-23T07:09:56.469Z,35.92
2018-11-23T07:12:24.917Z,41.33
2018-11-23T07:14:53.950Z,36.83
2018-11-23T07:17:22.782Z,38.25
2018-11-23T07:19:51.521Z,34.45
2018-11-23T07:22:20.027Z,35.43
2018-11-23T07:24:48.575Z,34.75
2018-11-23T07:27:17.059Z,32.40
2018-11-23T07:29:45.492Z,34.83
2018-11-23T07:32:13.954Z,34.45
2018-11-23T07:34:42.469Z,35.68
2018-11-23T07:37:10.909Z,35.80
2018-11-23T07:40:16.097Z,38.10
2018-11-23T07:42:44.558Z,36.95
2018-11-23T07:45:13.030Z,35.35
2018-11-23T07:47:41.632Z,35.55
2018-11-23T07:50:10.572Z,34.70
2018-11-23T07:52:39.051Z,34.27
2018-11-23T07:55:08.849Z,34.27
2018-11-23T07:57:37.369Z,33.33
2018-11-23T08:00:15.130Z,35.43
2018-11-23T08:02:44.229Z,33.13
2018-11-23T08:05:13.812Z,31.33
2018-11-23T08:07:44.866Z,33.58
2018-11-23T08:10:13.611Z,31.55
2018-11-23T08:12:43.356Z,31.40
2018-11-23T08:15:17.275Z,31.45
2018-11-23T08:17:45.853Z,32.03
2018-11-23T08:20:18.529Z,32.30
2018-11-23T08:22:47.102Z,32.45
2018-11-23T08:25:16.911Z,29.40
2018-11-23T08:27:49.548Z,32.03
2018-11-23T08:30:30.253Z,31.05
2018-11-23T08:32:59.081Z,31.23
2018-11-23T08:35:27.583Z,32.53
2018-11-23T08:37:56.448Z,31.12
2018-11-23T08:40:28.675Z,30.85
2018-11-23T08:42:56.468Z,32.23
2018-11-23T08:45:26.118Z,33.50
2018-11-23T08:47:54.712Z,36.80
2018-11-23T08:50:27.479Z,32.88
2018-11-23T08:52:57.698Z,32.75
2018-11-23T08:55:26.635Z,33.18
2018-11-23T08:57:55.182Z,33.58
2018-11-23T09:00:30.044Z,31.97
2018-11-23T09:03:00.021Z,31.70
2018-11-23T09:05:28.532Z,32.30
2018-11-23T09:07:57.611Z,32.50
2018-11-23T09:10:27.748Z,30.08
2018-11-23T09:13:00.917Z,30.50
2018-11-23T09:15:29.420Z,32.13
2018-11-23T09:17:57.919Z,32.40
2018-11-23T09:20:26.375Z,31.95
2018-11-23T09:22:54.897Z,32.50
2018-11-23T09:25:23.936Z,32.08
2018-11-23T09:27:52.471Z,31.27
2018-11-23T09:30:22.456Z,30.25
2018-11-23T09:32:51.732Z,31.17
2018-11-23T09:35:20.288Z,33.20
2018-11-23T09:37:49.279Z,31.48
2018-11-23T09:40:19.327Z,35.28
2018-11-23T09:42:47.961Z,29.18
2018-11-23T09:45:18.024Z,33.40
2018-11-23T09:47:47.346Z,29.45
2018-11-23T09:50:19.774Z,31.15
2018-11-23T09:52:49.424Z,30.05
2018-11-23T09:55:18.463Z,30.35
2018-11-23T09:57:47.085Z,30.92
2018-11-23T10:00:20.348Z,30.10
2018-11-23T10:02:49.743Z,28.73
2018-11-23T10:05:18.622Z,30.00
2018-11-23T10:07:48.441Z,27.82
2018-11-23T10:10:17.736Z,28.52
2018-11-23T10:12:46.247Z,27.55
2018-11-23T10:15:15.980Z,28.40
2018-11-23T10:17:44.575Z,26.48
2018-11-23T10:20:18.144Z,28.32
2018-11-23T10:22:52.117Z,27.90
2018-11-23T10:25:22.092Z,26.62
2018-11-23T10:27:50.611Z,27.35
2018-11-23T10:30:23.506Z,26.30
2018-11-23T10:32:54.003Z,28.30
2018-11-23T10:35:22.653Z,25.35
2018-11-23T10:37:52.442Z,25.27
2018-11-23T10:40:22.054Z,24.95
2018-11-23T10:42:50.603Z,22.25
2018-11-23T10:45:21.135Z,25.20
2018-11-23T10:47:50.152Z,24.43
2018-11-23T10:50:22.845Z,25.40
2018-11-23T10:52:51.504Z,23.77
2018-11-23T10:55:24.264Z,22.95
2018-11-23T10:57:52.712Z,24.65
2018-11-23T11:00:39.933Z,21.27
2018-11-23T11:03:39.506Z,21.33
2018-11-23T11:06:36.159Z,20.85
2018-11-23T11:09:06.971Z,18.45
2018-11-23T11:11:35.661Z,19.40
2018-11-23T11:14:04.333Z,17.82
2018-11-23T11:16:32.914Z,18.23
2018-11-23T11:19:01.364Z,18.27
2018-11-23T11:21:29.893Z,17.23
2018-11-23T11:23:58.357Z,16.40
2018-11-23T11:26:26.865Z,17.35
2018-11-23T11:28:55.298Z,17.77
2018-11-23T11:31:23.764Z,19.10
2018-11-23T11:33:52.237Z,18.05
2018-11-23T11:36:20.774Z,18.05
2018-11-23T11:38:50.748Z,19.30
2018-11-23T11:41:21.002Z,19.45
2018-11-23T11:43:49.489Z,17.92
2018-11-23T11:46:18.011Z,19.70
2018-11-23T11:48:46.496Z,20.37
2018-11-23T11:51:17.669Z,18.65
2018-11-23T11:53:43.586Z,19.77
2018-11-23T11:56:12.058Z,20.85
2018-11-23T11:58:40.551Z,19.57
2018-11-23T12:01:09.184Z,21.37
2018-11-23T12:03:37.676Z,19.70
2018-11-23T12:06:06.256Z,19.35
2018-11-23T12:08:34.778Z,19.80
2018-11-23T12:11:04.047Z,20.55
2018-11-23T12:13:32.579Z,22.48
2018-11-23T12:16:01.027Z,21.27
2018-11-23T12:18:32.313Z,22.67
2018-11-23T12:21:00.796Z,22.40
2018-11-23T12:23:29.265Z,22.75
2018-11-23T12:25:57.749Z,24.60
2018-11-23T12:28:26.232Z,21.85
2018-11-23T12:30:54.689Z,26.17
2018-11-23T12:33:23.165Z,24.12
2018-11-23T12:35:51.644Z,25.00
2018-11-23T12:38:20.108Z,24.40
2018-11-23T12:40:48.577Z,24.63
2018-11-23T12:43:17.772Z,26.02
2018-11-23T12:45:46.236Z,27.45
2018-11-23T12:48:14.727Z,27.35
2018-11-23T12:50:43.234Z,26.50
2018-11-23T12:53:11.750Z,25.48
2018-11-23T12:55:40.206Z,25.68
2018-11-23T12:58:09.478Z,26.45
2018-11-23T13:00:37.972Z,22.25
2018-11-23T13:03:06.436Z,24.70
2018-11-23T13:05:35.773Z,23.12
2018-11-23T13:08:14.808Z,26.48
2018-11-23T13:10:43.355Z,25.60
2018-11-23T13:13:11.802Z,25.60
2018-11-23T13:15:40.292Z,24.92
2018-11-23T13:18:08.752Z,26.97
2018-11-23T13:20:37.255Z,27.05
2018-11-23T13:23:05.719Z,26.27
2018-11-23T13:25:34.441Z,27.50
2018-11-23T13:28:03.121Z,28.10
2018-11-23T13:30:32.919Z,26.07
2018-11-23T13:33:01.367Z,28.35
2018-11-23T13:35:29.855Z,28.90
2018-11-23T13:37:58.342Z,30.32
2018-11-23T13:40:27.814Z,26.68
2018-11-23T13:42:57.247Z,26.95
2018-11-23T13:45:27.086Z,29.20
2018-11-23T13:47:55.557Z,32.13
2018-11-23T13:50:24.806Z,33.15
2018-11-23T13:52:54.800Z,32.33
2018-11-23T13:55:23.303Z,30.40
2018-11-23T13:57:51.775Z,30.25
2018-11-23T14:00:24.472Z,30.02
2018-11-23T14:02:52.939Z,31.68
2018-11-23T14:05:22.714Z,28.95
2018-11-23T14:07:52.595Z,29.48
2018-11-23T14:10:22.254Z,30.15
2018-11-23T14:12:50.790Z,28.30
2018-11-23T14:15:20.774Z,26.85
2018-11-23T14:17:49.993Z,28.47
2018-11-23T14:20:19.205Z,28.20
2018-11-23T14:22:47.743Z,27.70
2018-11-23T14:25:17.544Z,25.85
2018-11-23T14:27:46.427Z,27.87
2018-11-23T14:30:17.218Z,26.30
2018-11-23T14:32:45.827Z,26.42
2018-11-23T14:35:21.471Z,27.13
2018-11-23T14:37:50.574Z,29.32
2018-11-23T14:40:19.078Z,28.47
2018-11-23T14:42:48.407Z,27.17
2018-11-23T14:45:19.115Z,24.87
2018-11-23T14:47:48.090Z,27.70
2018-11-23T14:50:18.457Z,29.12
2018-11-23T14:52:48.309Z,26.62
2018-11-23T14:55:17.200Z,25.23
2018-11-23T14:57:46.048Z,26.12
2018-11-23T15:00:22.987Z,26.40
2018-11-23T15:02:52.711Z,24.92
2018-11-23T15:05:21.249Z,25.97
2018-11-23T15:07:52.033Z,25.27
2018-11-23T15:10:21.878Z,24.87
2018-11-23T15:12:51.586Z,25.88
2018-11-23T15:15:21.381Z,26.75
2018-11-23T15:17:50.624Z,27.00
2018-11-23T15:20:23.511Z,24.77
2018-11-23T15:23:02.613Z,26.73
2018-11-23T15:25:31.075Z,27.87
2018-11-23T15:27:59.539Z,25.88
2018-11-23T15:30:34.585Z,26.70
2018-11-23T15:33:13.066Z,25.75
2018-11-23T15:35:43.467Z,25.52
2018-11-23T15:38:19.242Z,27.50
2018-11-23T15:40:47.847Z,27.80
2018-11-23T15:43:17.155Z,27.17
2018-11-23T15:45:45.658Z,27.22
2018-11-23T15:48:14.100Z,27.45
2018-11-23T15:50:43.075Z,27.73
2018-11-23T15:53:12.796Z,26.73
2018-11-23T15:55:43.832Z,29.40
2018-11-23T15:58:14.012Z,30.92
2018-11-23T16:00:43.770Z,31.02
2018-11-23T16:03:13.049Z,29.90
2018-11-23T16:05:41.837Z,31.20
2018-11-23T16:08:19.966Z,30.68
2018-11-23T16:10:48.555Z,32.35
2018-11-23T16:13:17.094Z,29.05
2018-11-23T16:15:45.631Z,30.32
2018-11-23T16:18:14.333Z,29.95
2018-11-23T16:20:44.216Z,29.90
2018-11-23T16:23:21.941Z,29.55
2018-11-23T16:25:51.469Z,30.05
2018-11-23T16:28:20.042Z,28.27
2018-11-23T16:30:49.806Z,27.98
2018-11-23T16:33:19.784Z,30.50
2018-11-23T16:35:48.364Z,28.67
2018-11-23T16:38:18.279Z,33.20
2018-11-23T16:40:48.422Z,31.20
2018-11-23T16:43:17.112Z,29.50
2018-11-23T16:45:46.064Z,37.60
2018-11-23T16:48:15.135Z,29.12
2018-11-23T16:50:44.052Z,31.82
2018-11-23T16:53:12.544Z,29.85
2018-11-23T16:55:41.051Z,33.73
2018-11-23T16:58:10.861Z,32.00
2018-11-23T17:00:40.671Z,29.30
2018-11-23T17:03:10.325Z,29.02
2018-11-23T17:05:49.120Z,28.20
2018-11-23T17:08:17.580Z,28.57
2018-11-23T17:10:46.049Z,30.85
2018-11-23T17:13:14.556Z,30.15
2018-11-23T17:15:44.062Z,28.40
2018-11-23T17:18:12.550Z,29.70
2018-11-23T17:20:41.125Z,30.45
2018-11-23T17:23:13.457Z,30.70
2018-11-23T17:25:41.953Z,29.23
2018-11-23T17:28:11.323Z,30.15
2018-11-23T17:30:40.005Z,30.25
2018-11-23T17:33:08.506Z,28.90
2018-11-23T17:35:37.208Z,29.18
2018-11-23T17:38:06.053Z,30.70
2018-11-23T17:40:36.276Z,28.70
2018-11-23T17:43:04.832Z,30.00
2018-11-23T17:45:33.825Z,28.50
2018-11-23T17:48:02.660Z,28.75
2018-11-23T17:50:32.792Z,27.85
2018-11-23T17:53:01.384Z,26.23
2018-11-23T17:55:30.114Z,27.40
2018-11-23T17:57:59.053Z,27.87
2018-11-23T18:00:38.538Z,26.70
2018-11-23T18:03:01.002Z,27.40
2018-11-23T18:05:30.390Z,27.50
2018-11-23T18:07:59.322Z,44.03
2018-11-23T18:10:29.164Z,27.85
2018-11-23T18:12:58.227Z,27.25
2018-11-23T18:15:30.678Z,24.92
2018-11-23T18:18:00.090Z,25.55
2018-11-23T18:20:29.163Z,26.25
2018-11-23T18:22:59.464Z,27.00
2018-11-23T18:25:29.339Z,25.80
2018-11-23T18:28:03.730Z,25.50
2018-11-23T18:30:33.187Z,27.42
2018-11-23T18:33:08.843Z,28.10
2018-11-23T18:35:37.408Z,26.52
2018-11-23T18:38:05.982Z,28.00
2018-11-23T18:40:37.533Z,27.02
2018-11-23T18:43:03.003Z,24.57
2018-11-23T18:45:33.497Z,24.43
2018-11-23T18:48:01.989Z,28.40
2018-11-23T18:50:30.461Z,28.17
2018-11-23T18:52:59.346Z,27.13
2018-11-23T18:55:27.845Z,25.32
2018-11-23T18:57:56.315Z,27.37
2018-11-23T19:00:24.798Z,23.85
2018-11-23T19:02:53.276Z,25.45
2018-11-23T19:05:26.095Z,24.67
2018-11-23T19:07:54.555Z,27.00
2018-11-23T19:10:23.025Z,27.00
2018-11-23T19:12:51.520Z,23.67
2018-11-23T19:15:25.116Z,23.57
2018-11-23T19:17:48.552Z,22.60
2018-11-23T19:20:53.200Z,21.60
2018-11-23T19:27:22.606Z,23.18
2018-11-23T19:29:55.125Z,23.67
2018-11-23T19:35:49.462Z,21.50
2018-11-23T19:38:49.993Z,23.20
2018-11-23T19:45:00.749Z,21.40
2018-11-23T19:47:31.238Z,20.82
2018-11-23T19:50:07.820Z,22.35
2018-11-23T19:52:36.290Z,22.17
2018-11-23T19:55:05.286Z,21.50
2018-11-23T20:48:52.839Z,20.37
2018-11-23T20:51:21.386Z,21.35
2018-11-23T20:53:49.835Z,22.17
2018-11-23T20:56:18.319Z,21.55
2018-11-23T20:58:47.725Z,21.70
2018-11-23T21:01:16.233Z,21.07
2018-11-23T21:03:44.844Z,21.90
2018-11-23T21:06:13.494Z,21.97
2018-11-23T21:08:41.961Z,24.40
2018-11-23T21:11:11.613Z,20.45
2018-11-23T21:13:40.068Z,22.75
2018-11-23T21:16:44.124Z,33.00
2018-11-23T21:19:12.706Z,20.20
2018-11-23T21:21:41.171Z,20.43
2018-11-23T21:24:09.671Z,21.68
2018-11-23T21:26:38.181Z,22.82
2018-11-23T21:29:06.667Z,18.98
2018-11-23T21:31:44.596Z,20.40
2018-11-23T21:34:13.128Z,21.00
2018-11-23T21:40:23.737Z,23.18
2018-11-23T21:42:52.346Z,21.80
2018-11-23T21:45:25.211Z,21.17
2018-11-23T21:47:56.288Z,20.57
2018-11-23T21:50:26.795Z,19.92
2018-11-23T21:53:00.020Z,21.93
2018-11-23T21:55:31.873Z,20.97
2018-11-23T21:58:10.811Z,20.35
2018-11-23T22:00:40.172Z,20.57
2018-11-23T22:03:10.329Z,21.17
2018-11-23T22:05:45.828Z,21.65
2018-11-23T22:08:18.227Z,21.40
2018-11-23T22:10:52.834Z,20.75
2018-11-23T22:13:19.602Z,20.75
2018-11-23T22:15:50.969Z,19.80
2018-11-23T22:18:20.028Z,20.62
2018-11-23T22:20:49.473Z,20.43
2018-11-23T22:23:18.155Z,21.57
2018-11-23T22:25:49.980Z,20.23
2018-11-23T22:28:18.729Z,22.05
2018-11-23T22:30:47.355Z,22.00
2018-11-23T22:33:20.617Z,21.80
2018-11-23T22:35:52.312Z,21.75
2018-11-23T22:38:21.046Z,21.57
2018-11-23T22:40:50.041Z,21.42
2018-11-23T22:43:18.750Z,20.43
2018-11-23T22:45:47.666Z,23.12
2018-11-23T22:48:16.296Z,24.43
2018-11-23T22:50:44.948Z,23.40
2018-11-23T22:53:13.627Z,22.50
2018-11-23T22:55:42.350Z,22.85
2018-11-23T22:58:10.979Z,21.87
2018-11-23T23:00:45.429Z,23.45
2018-11-23T23:03:14.381Z,22.45
2018-11-23T23:05:43.012Z,22.17
2018-11-23T23:08:13.540Z,21.68
2018-11-23T23:10:42.477Z,22.77
2018-11-23T23:13:13.035Z,21.12
2018-11-23T23:15:43.216Z,21.35
2018-11-23T23:18:11.763Z,23.02
2018-11-23T23:20:42.296Z,24.27
2018-11-23T23:23:11.021Z,20.43
2018-11-23T23:25:40.791Z,22.22
2018-11-23T23:28:09.901Z,22.95
2018-11-23T23:30:43.106Z,23.38
2018-11-23T23:33:33.712Z,28.00
2018-11-23T23:36:02.898Z,22.22
2018-11-23T23:38:33.491Z,23.32
2018-11-23T23:41:13.586Z,21.02
2018-11-23T23:43:55.309Z,21.95
2018-11-23T23:46:28.849Z,22.55
2018-11-23T23:48:57.917Z,21.87
2018-11-23T23:51:34.239Z,22.52
2018-11-23T23:54:08.288Z,20.57
2018-11-23T23:56:39.733Z,20.40
2018-11-23T23:59:10.663Z,20.25
